Time;durP1;ratioP1;P1;durP2;ratioP2;P2;SDS_P1;SDS_P2;PMS_P1;PMS_P2;Temp;Humidity;BMP_temperature;BMP_pressure;BME280_temperature;BME280_humidity;BME280_pressure;Samples;Min_cycle;Max_cycle;Signal;HPM_P1;HPM_P2
2022/10/27 00:02:04;;;;;;;;;;;;;;;21.81;43.96;100060.53;4466691;32;33041;-90
2022/10/27 00:04:31;;;;;;;;;;;;;;;21.55;43.90;100060.13;4464026;32;33615;-92
2022/10/27 00:06:58;;;;;;;;;;;;;;;21.46;44.15;100053.25;4465237;32;34678;-93
2022/10/27 00:09:25;;;;;;;;;;;;;;;21.68;43.67;100058.16;4466971;32;34531;-86
2022/10/27 00:11:55;;;;;;;;;;;;;;;21.75;43.26;100060.66;4465843;32;31641;-91
2022/10/27 00:14:22;;;;;;;;;;;;;;;21.80;42.87;100048.25;4466180;32;34929;-93
2022/10/27 00:16:53;;;;;;;;;;;;;;;21.55;43.06;100060.13;4467969;32;34771;-92
2022/10/27 00:19:21;;;;;;;;;;;;;;;21.60;42.95;100060.94;4468020;32;34981;-92
2022/10/27 00:21:50;;;;;;;;;;;;;;;21.57;43.02;100058.34;4476046;32;33110;-91
2022/10/27 00:24:18;;;;;;;;;;;;;;;21.65;42.59;100061.72;4449642;32;34932;-92
2022/10/27 00:26:46;;;;;;;;;;;;;;;21.61;42.78;100060.03;4463480;32;35161;-92
2022/10/27 00:29:13;;;;;;;;;;;;;;;21.64;42.62;100062.62;4481763;32;34256;-93
2022/10/27 00:31:40;;;;;;;;;;;;;;;21.54;42.91;100058.41;4483616;32;33492;-91
2022/10/27 00:34:08;;;;;;;;;;;;;;;21.47;42.94;100062.91;4474767;32;35074;-91
2022/10/27 00:36:35;;;;;;;;;;;;;;;21.49;42.91;100058.50;4466798;32;34338;-90
2022/10/27 00:39:02;;;;;;;;;;;;;;;21.48;43.02;100055.84;4461163;32;33697;-92
2022/10/27 00:41:31;;;;;;;;;;;;;;;21.51;43.03;100058.44;4467661;32;33266;-90
2022/10/27 00:43:59;;;;;;;;;;;;;;;21.59;42.90;100061.81;4464523;32;34605;-91
2022/10/27 00:46:36;;;;;;;;;;;;;;;21.54;43.01;100072.47;4457329;32;35262;-91
2022/10/27 00:49:14;;;;;;;;;;;;;;;21.43;43.33;100071.78;4454044;32;32513;-92
2022/10/27 00:51:45;;;;;;;;;;;;;;;21.47;43.33;100072.59;4454369;32;33011;-92
2022/10/27 00:54:13;;;;;;;;;;;;;;;21.45;43.39;100072.62;4465712;32;33508;-92
2022/10/27 00:56:40;;;;;;;;;;;;;;;21.19;43.81;100080.06;4438649;32;34894;-89
2022/10/27 00:59:07;;;;;;;;;;;;;;;21.17;43.96;100076.56;4469377;32;32450;-92
2022/10/27 01:01:36;;;;;;;;;;;;;;;21.32;43.84;100074.56;4469848;32;33363;-92
2022/10/27 01:04:04;;;;;;;;;;;;;;;20.96;44.85;100083.06;4468163;32;34184;-92
2022/10/27 01:06:32;;;;;;;;;;;;;;;20.68;45.87;100093.97;4459821;32;34643;-91
2022/10/27 01:08:59;;;;;;;;;;;;;;;20.57;47.46;100093.25;4468490;32;34872;-92
2022/10/27 01:11:26;;;;;;;;;;;;;;;19.50;50.98;100091.75;4448543;32;33524;-88
2022/10/27 01:13:53;;;;;;;;;;;;;;;19.64;50.73;100089.91;4468278;32;34770;-92
2022/10/27 01:16:53;;;;;;;;;;;;;;;19.01;52.89;100098.25;4464989;32;33033;-92
2022/10/27 01:19:38;;;;;;;;;;;;;;;18.60;54.21;100098.44;4438398;32;34021;-91
2022/10/27 01:22:18;;;;;;;;;;;;;;;17.73;57.17;100110.09;4468209;32;33559;-92
2022/10/27 01:24:50;;;;;;;;;;;;;;;17.87;56.82;100108.34;4448534;32;34085;-90
2022/10/27 01:27:24;;;;;;;;;;;;;;;18.02;56.54;100111.81;4426212;32;34788;-91
2022/10/27 01:30:05;;;;;;;;;;;;;;;17.96;56.72;100121.44;4444293;32;34195;-90
2022/10/27 01:32:39;;;;;;;;;;;;;;;17.86;57.09;100109.22;4465380;32;34195;-92
2022/10/27 01:35:09;;;;;;;;;;;;;;;18.40;55.62;100104.69;4481823;32;33741;-92
2022/10/27 01:37:38;;;;;;;;;;;;;;;18.48;55.28;100117.78;4467906;32;34098;-92
2022/10/27 01:40:07;;;;;;;;;;;;;;;18.36;55.58;100112.56;4451530;32;33927;-91
2022/10/27 01:42:46;;;;;;;;;;;;;;;18.28;56.00;100109.97;4459888;32;33298;-92
2022/10/27 01:45:14;;;;;;;;;;;;;;;18.23;56.09;100109.13;4447496;32;35048;-91
2022/10/27 01:47:41;;;;;;;;;;;;;;;18.76;54.59;100107.19;4444093;32;33843;-92
2022/10/27 01:50:08;;;;;;;;;;;;;;;18.91;54.15;100105.34;4456024;32;34698;-92
2022/10/27 01:52:39;;;;;;;;;;;;;;;19.42;52.50;100100.56;4467923;32;33230;-93
2022/10/27 01:55:11;;;;;;;;;;;;;;;19.53;52.21;100103.12;4467778;32;34305;-91
2022/10/27 01:57:46;;;;;;;;;;;;;;;19.69;51.66;100101.25;4453773;32;35280;-92
2022/10/27 02:00:13;;;;;;;;;;;;;;;18.80;54.36;100114.16;4468827;32;34192;-92
2022/10/27 02:02:43;;;;;;;;;;;;;;;18.62;54.86;100104.59;4450886;32;33458;-92
2022/10/27 02:05:17;;;;;;;;;;;;;;;18.19;56.14;100113.53;4452202;32;33635;-92
2022/10/27 02:07:54;;;;;;;;;;;;;;;18.68;54.70;100108.06;4467756;32;34106;-92
2022/10/27 02:10:23;;;;;;;;;;;;;;;19.04;53.63;100102.63;4460465;32;35221;-91
2022/10/27 02:12:50;;;;;;;;;;;;;;;19.18;53.14;100106.03;4452382;32;33473;-92
2022/10/27 02:15:18;;;;;;;;;;;;;;;18.88;53.84;100109.75;4457893;32;34647;-92
2022/10/27 02:17:45;;;;;;;;;;;;;;;18.92;53.76;100117.59;4467711;32;35922;-91
2022/10/27 02:20:14;;;;;;;;;;;;;;;19.39;52.50;100112.88;4453928;32;33829;-91
2022/10/27 02:22:41;;;;;;;;;;;;;;;19.78;51.41;100108.19;4453572;32;33262;-90
2022/10/27 02:25:09;;;;;;;;;;;;;;;19.75;51.08;100106.47;4462980;32;33728;-92
2022/10/27 02:27:40;;;;;;;;;;;;;;;19.95;50.55;100115.91;4444832;32;34255;-92
2022/10/27 02:30:07;;;;;;;;;;;;;;;20.50;48.63;100110.06;4451737;32;35077;-91
2022/10/27 02:32:35;;;;;;;;;;;;;;;20.59;47.97;100108.16;4439147;32;33283;-91
2022/10/27 02:35:04;;;;;;;;;;;;;;;20.55;47.72;100111.72;4452508;32;33782;-91
2022/10/27 02:37:32;;;;;;;;;;;;;;;20.40;48.22;100115.37;4483426;32;34393;-90
2022/10/27 02:39:59;;;;;;;;;;;;;;;20.44;48.17;100110.97;4477200;32;34339;-92
2022/10/27 02:42:27;;;;;;;;;;;;;;;20.06;49.11;100120.16;4453380;32;33459;-92
2022/10/27 02:44:54;;;;;;;;;;;;;;;20.02;49.29;100114.97;4469968;32;33988;-93
2022/10/27 02:47:21;;;;;;;;;;;;;;;19.45;51.03;100118.97;4481227;32;34356;-91
2022/10/27 02:49:48;;;;;;;;;;;;;;;18.56;53.99;100125.63;4462520;32;34137;-92
2022/10/27 02:52:15;;;;;;;;;;;;;;;18.53;54.28;100130.91;4467358;32;33316;-93
2022/10/27 02:54:47;;;;;;;;;;;;;;;18.27;55.23;100126.62;4466802;32;35101;-92
2022/10/27 02:57:15;;;;;;;;;;;;;;;18.47;54.56;100124.78;4467540;32;33993;-92
2022/10/27 02:59:42;;;;;;;;;;;;;;;18.10;55.74;100131.03;4467372;32;34519;-92
2022/10/27 03:02:10;;;;;;;;;;;;;;;18.40;54.97;100127.44;4479121;32;33583;-91
2022/10/27 03:04:37;;;;;;;;;;;;;;;18.07;56.23;100125.78;4467876;32;34158;-93
2022/10/27 03:07:05;;;;;;;;;;;;;;;18.26;55.58;100121.34;4467403;32;34265;-93
2022/10/27 03:09:32;;;;;;;;;;;;;;;17.48;58.15;100125.81;4467260;32;33829;-93
2022/10/27 03:11:59;;;;;;;;;;;;;;;17.83;57.13;100117.09;4465546;32;33266;-89
2022/10/27 03:14:26;;;;;;;;;;;;;;;18.05;56.72;100132.78;4458375;32;34100;-90
2022/10/27 03:16:53;;;;;;;;;;;;;;;18.01;56.76;100128.44;4466989;32;34847;-93
2022/10/27 03:19:21;;;;;;;;;;;;;;;18.16;56.36;100131.87;4467270;32;34820;-92
2022/10/27 03:21:48;;;;;;;;;;;;;;;18.21;56.19;100137.12;4466845;32;34196;-90
2022/10/27 03:24:15;;;;;;;;;;;;;;;18.00;57.14;100140.69;4467084;32;35001;-92
2022/10/27 03:26:42;;;;;;;;;;;;;;;18.27;56.23;100147.62;4467177;32;34469;-92
2022/10/27 03:29:10;;;;;;;;;;;;;;;18.03;56.83;100145.03;4467044;32;34775;-92
2022/10/27 03:31:37;;;;;;;;;;;;;;;18.59;55.36;100141.38;4475556;32;33318;-90
2022/10/27 03:34:04;;;;;;;;;;;;;;;18.78;54.74;100152.69;4462441;32;34932;-92
2022/10/27 03:36:31;;;;;;;;;;;;;;;18.92;54.53;100143.00;4466523;32;34113;-91
2022/10/27 03:38:58;;;;;;;;;;;;;;;18.59;55.25;100133.50;4467011;32;34033;-93
2022/10/27 03:41:26;;;;;;;;;;;;;;;18.77;54.75;100143.94;4467156;32;32510;-93
2022/10/27 03:43:53;;;;;;;;;;;;;;;18.34;56.10;100141.47;4467036;32;33674;-93
2022/10/27 03:46:20;;;;;;;;;;;;;;;19.45;53.14;100141.75;4466071;32;33939;-91
2022/10/27 03:48:47;;;;;;;;;;;;;;;19.23;53.63;100148.94;4466566;32;34452;-92
2022/10/27 03:51:15;;;;;;;;;;;;;;;19.30;53.24;100142.75;4465758;32;33112;-90
2022/10/27 03:53:42;;;;;;;;;;;;;;;19.38;53.01;100145.31;4460435;32;35183;-92
2022/10/27 03:56:09;;;;;;;;;;;;;;;19.81;51.94;100139.72;4466851;32;34140;-90
2022/10/27 03:58:38;;;;;;;;;;;;;;;19.87;51.70;100143.16;4451885;32;33690;-91
2022/10/27 04:01:05;;;;;;;;;;;;;;;20.06;51.09;100145.63;4460604;32;33192;-91
2022/10/27 04:03:32;;;;;;;;;;;;;;;20.13;50.85;100147.31;4482301;32;34872;-91
2022/10/27 04:05:59;;;;;;;;;;;;;;;20.22;50.87;100149.84;4472758;32;34477;-93
2022/10/27 04:08:27;;;;;;;;;;;;;;;20.41;50.17;100151.38;4479791;32;34314;-93
2022/10/27 04:10:54;;;;;;;;;;;;;;;20.27;50.44;100150.69;4481307;32;34137;-92
2022/10/27 04:13:21;;;;;;;;;;;;;;;19.97;51.19;100146.59;4468238;32;34108;-92
2022/10/27 04:15:55;;;;;;;;;;;;;;;20.03;51.10;100148.28;4462244;32;34426;-92
2022/10/27 04:18:22;;;;;;;;;;;;;;;20.42;50.11;100153.13;4453939;32;34118;-92
2022/10/27 04:20:49;;;;;;;;;;;;;;;20.36;50.07;100155.81;4464184;32;33058;-85
2022/10/27 04:23:16;;;;;;;;;;;;;;;20.53;49.48;100157.41;4463058;32;35033;-88
2022/10/27 04:25:44;;;;;;;;;;;;;;;20.17;50.45;100162.19;4468000;32;35305;-90
2022/10/27 04:28:11;;;;;;;;;;;;;;;19.81;51.51;100160.78;4465057;32;34784;-90
2022/10/27 04:30:38;;;;;;;;;;;;;;;20.36;50.34;100163.72;4454967;32;32862;-89
2022/10/27 04:33:05;;;;;;;;;;;;;;;20.50;49.98;100162.75;4467546;32;34033;-91
2022/10/27 04:35:32;;;;;;;;;;;;;;;20.10;50.89;100163.13;4466868;32;33807;-94
2022/10/27 04:38:05;;;;;;;;;;;;;;;20.73;49.17;100165.09;4461016;32;34468;-91
2022/10/27 04:40:32;;;;;;;;;;;;;;;20.59;49.42;100167.88;4468437;32;33413;-90
2022/10/27 04:42:59;;;;;;;;;;;;;;;20.45;49.79;100172.41;4464645;32;34143;-93
2022/10/27 04:45:27;;;;;;;;;;;;;;;20.30;50.20;100169.03;4468172;32;35300;-92
2022/10/27 04:47:54;;;;;;;;;;;;;;;20.47;49.74;100183.81;4478620;32;34914;-92
2022/10/27 04:50:21;;;;;;;;;;;;;;;20.70;49.27;100176.53;4460981;32;33092;-93
2022/10/27 04:52:54;;;;;;;;;;;;;;;20.72;49.23;100182.66;4468244;32;35200;-93
2022/10/27 04:55:21;;;;;;;;;;;;;;;21.00;48.36;100183.16;4461077;32;34227;-93
2022/10/27 04:57:49;;;;;;;;;;;;;;;20.83;48.59;100178.09;4468995;32;34117;-87
2022/10/27 05:00:16;;;;;;;;;;;;;;;21.13;48.00;100182.09;4462640;32;33138;-93
2022/10/27 05:02:43;;;;;;;;;;;;;;;21.50;47.28;100178.09;4472719;32;33987;-90
2022/10/27 05:05:10;;;;;;;;;;;;;;;21.57;47.00;100182.38;4445271;32;35040;-94
2022/10/27 05:07:38;;;;;;;;;;;;;;;21.34;47.44;100199.44;4463932;32;34539;-92
2022/10/27 05:10:05;;;;;;;;;;;;;;;20.71;48.76;100204.62;4464403;32;33741;-93
2022/10/27 05:12:32;;;;;;;;;;;;;;;20.68;48.94;100196.75;4452771;32;34349;-92
2022/10/27 05:14:59;;;;;;;;;;;;;;;20.59;49.11;100194.22;4454385;32;33609;-92
2022/10/27 05:17:27;;;;;;;;;;;;;;;20.88;48.70;100202.66;4461381;32;33758;-92
2022/10/27 05:19:54;;;;;;;;;;;;;;;20.93;48.49;100205.22;4465974;32;34210;-92
2022/10/27 05:22:21;;;;;;;;;;;;;;;21.09;47.97;100200.63;4463685;32;33714;-91
2022/10/27 05:24:48;;;;;;;;;;;;;;;21.32;47.44;100195.88;4466085;32;33922;-92
2022/10/27 05:27:16;;;;;;;;;;;;;;;21.37;47.28;100195.88;4465190;32;34704;-88
2022/10/27 05:29:43;;;;;;;;;;;;;;;21.31;47.42;100202.06;4468243;32;34286;-88
2022/10/27 05:32:10;;;;;;;;;;;;;;;21.57;46.74;100203.47;4467712;32;34391;-88
2022/10/27 05:34:37;;;;;;;;;;;;;;;21.71;46.36;100204.13;4467788;32;35399;-92
2022/10/27 05:37:05;;;;;;;;;;;;;;;21.91;45.77;100202.94;4467687;32;34870;-91
2022/10/27 05:39:32;;;;;;;;;;;;;;;21.98;45.46;100212.50;4467834;32;33133;-91
2022/10/27 05:41:59;;;;;;;;;;;;;;;22.03;45.40;100208.00;4467860;32;34984;-91
2022/10/27 05:44:26;;;;;;;;;;;;;;;21.80;45.77;100214.53;4467924;32;35391;-91
2022/10/27 05:46:54;;;;;;;;;;;;;;;21.91;45.48;100216.13;4457893;32;34932;-90
2022/10/27 05:49:21;;;;;;;;;;;;;;;22.04;45.16;100221.16;4431809;32;33547;-92
2022/10/27 05:51:49;;;;;;;;;;;;;;;22.13;44.90;100220.16;4463846;32;34409;-91
2022/10/27 05:54:16;;;;;;;;;;;;;;;22.09;45.00;100223.75;4466967;32;34292;-89
2022/10/27 05:56:44;;;;;;;;;;;;;;;21.65;45.98;100233.25;4461571;32;34907;-88
2022/10/27 05:59:11;;;;;;;;;;;;;;;21.54;46.33;100230.78;4452568;32;34411;-90
2022/10/27 06:01:38;;;;;;;;;;;;;;;21.72;46.08;100223.47;4452549;32;34212;-90
2022/10/27 06:04:06;;;;;;;;;;;;;;;21.64;46.08;100231.53;4452394;32;34367;-90
2022/10/27 06:06:33;;;;;;;;;;;;;;;21.43;46.50;100234.47;4452417;32;34496;-90
2022/10/27 06:09:00;;;;;;;;;;;;;;;21.50;46.62;100238.78;4452351;32;33014;-90
2022/10/27 06:11:27;;;;;;;;;;;;;;;21.51;46.65;100243.13;4452581;32;34347;-90
2022/10/27 06:13:54;;;;;;;;;;;;;;;21.55;46.71;100248.34;4452312;32;34076;-90
2022/10/27 06:16:24;;;;;;;;;;;;;;;21.69;46.49;100255.19;4454980;32;35310;-87
2022/10/27 06:18:52;;;;;;;;;;;;;;;21.44;47.14;100254.66;4452256;32;33340;-90
2022/10/27 06:21:19;;;;;;;;;;;;;;;21.70;46.46;100259.56;4452219;32;34175;-90
2022/10/27 06:23:47;;;;;;;;;;;;;;;21.53;46.90;100258.06;4452049;32;34423;-89
2022/10/27 06:26:14;;;;;;;;;;;;;;;21.30;47.35;100261.00;4464514;32;35003;-89
2022/10/27 06:28:41;;;;;;;;;;;;;;;20.95;48.14;100260.56;4440321;32;32782;-89
2022/10/27 06:31:08;;;;;;;;;;;;;;;21.13;47.81;100258.56;4467645;32;34247;-90
2022/10/27 06:33:36;;;;;;;;;;;;;;;21.10;47.64;100266.53;4455558;32;34391;-89
2022/10/27 06:36:03;;;;;;;;;;;;;;;21.02;48.18;100268.38;4451955;32;34056;-90
2022/10/27 06:38:30;;;;;;;;;;;;;;;20.50;49.51;100262.84;4452160;32;34211;-89
2022/10/27 06:40:57;;;;;;;;;;;;;;;20.46;49.22;100269.88;4452133;32;34365;-90
2022/10/27 06:43:24;;;;;;;;;;;;;;;20.91;48.36;100272.94;4452121;32;35389;-89
2022/10/27 06:45:52;;;;;;;;;;;;;;;20.23;50.24;100270.09;4451975;32;34974;-88
2022/10/27 06:48:20;;;;;;;;;;;;;;;19.80;51.64;100280.06;4459457;32;34046;-89
2022/10/27 06:50:47;;;;;;;;;;;;;;;20.27;50.52;100279.72;4460847;32;34157;-90
2022/10/27 06:53:15;;;;;;;;;;;;;;;19.71;52.25;100283.66;4460649;32;35168;-89
2022/10/27 06:55:43;;;;;;;;;;;;;;;19.88;51.66;100284.37;4467683;32;34940;-91
2022/10/27 06:58:10;;;;;;;;;;;;;;;19.65;52.34;100287.19;4467748;32;34312;-90
2022/10/27 07:00:37;;;;;;;;;;;;;;;19.29;53.44;100293.50;4465896;32;33927;-90
2022/10/27 07:03:08;;;;;;;;;;;;;;;19.49;52.59;100288.13;4460821;32;35357;-90
2022/10/27 07:05:40;;;;;;;;;;;;;;;19.00;54.18;100290.12;4451749;32;35160;-90
2022/10/27 07:08:08;;;;;;;;;;;;;;;18.78;55.09;100290.19;4455394;32;34512;-90
2022/10/27 07:10:35;;;;;;;;;;;;;;;19.33;54.14;100299.62;4453520;32;34357;-90
2022/10/27 07:13:02;;;;;;;;;;;;;;;19.43;53.86;100302.22;4451809;32;35339;-90
2022/10/27 07:15:31;;;;;;;;;;;;;;;19.29;54.47;100308.41;4451561;32;34337;-90
2022/10/27 07:18:02;;;;;;;;;;;;;;;19.14;54.67;100309.34;4452421;32;34152;-90
2022/10/27 07:20:32;;;;;;;;;;;;;;;19.86;52.64;100315.13;4451668;32;34916;-90
2022/10/27 07:22:59;;;;;;;;;;;;;;;20.16;51.73;100313.16;4452341;32;33909;-90
2022/10/27 07:25:27;;;;;;;;;;;;;;;20.72;50.05;100317.06;4452865;32;33531;-90
2022/10/27 07:27:54;;;;;;;;;;;;;;;20.19;51.20;100313.09;4452540;32;33391;-89
2022/10/27 07:30:25;;;;;;;;;;;;;;;19.44;53.34;100319.72;4451541;32;34953;-89
2022/10/27 07:32:53;;;;;;;;;;;;;;;20.25;51.12;100315.69;4451858;32;34473;-90
2022/10/27 07:35:20;;;;;;;;;;;;;;;19.50;53.54;100318.81;4452293;32;34232;-89
2022/10/27 07:37:47;;;;;;;;;;;;;;;19.05;54.70;100328.63;4451428;32;33445;-89
2022/10/27 07:40:15;;;;;;;;;;;;;;;19.91;52.63;100331.75;4437720;32;33703;-89
2022/10/27 07:42:44;;;;;;;;;;;;;;;20.13;51.53;100342.13;4446968;32;34273;-89
2022/10/27 07:45:12;;;;;;;;;;;;;;;19.41;53.69;100339.91;4467611;32;34092;-89
2022/10/27 07:47:43;;;;;;;;;;;;;;;20.09;52.00;100351.81;4469129;32;33309;-89
2022/10/27 07:50:10;;;;;;;;;;;;;;;20.67;50.39;100352.25;4454764;32;34221;-90
2022/10/27 07:52:41;;;;;;;;;;;;;;;20.85;49.71;100341.53;4468704;32;34532;-89
2022/10/27 07:55:10;;;;;;;;;;;;;;;20.82;50.07;100346.81;4468941;32;35192;-89
2022/10/27 07:57:42;;;;;;;;;;;;;;;21.12;49.32;100342.97;4468892;32;33885;-90
2022/10/27 08:00:16;;;;;;;;;;;;;;;21.08;49.09;100352.69;4459634;32;34437;-89
2022/10/27 08:02:43;;;;;;;;;;;;;;;21.18;48.85;100353.47;4453755;32;35313;-88
2022/10/27 08:05:10;;;;;;;;;;;;;;;21.03;49.11;100358.91;4467946;32;34454;-89
2022/10/27 08:07:37;;;;;;;;;;;;;;;21.09;49.44;100364.09;4467393;32;34027;-90
2022/10/27 08:10:05;;;;;;;;;;;;;;;21.57;47.87;100375.00;4467357;32;33840;-90
2022/10/27 08:12:33;;;;;;;;;;;;;;;21.51;48.24;100370.66;4464674;32;33920;-89
2022/10/27 08:15:00;;;;;;;;;;;;;;;21.16;49.34;100368.41;4469003;32;34203;-89
2022/10/27 08:17:28;;;;;;;;;;;;;;;21.27;49.02;100371.81;4468500;32;33321;-89
2022/10/27 08:19:56;;;;;;;;;;;;;;;21.76;47.58;100379.13;4468821;32;34210;-89
2022/10/27 08:22:23;;;;;;;;;;;;;;;21.62;47.89;100378.44;4468537;32;35043;-89
2022/10/27 08:24:50;;;;;;;;;;;;;;;21.90;47.50;100389.53;4468430;32;34306;-90
2022/10/27 08:27:18;;;;;;;;;;;;;;;21.87;47.47;100382.50;4468630;32;34280;-89
2022/10/27 08:29:45;;;;;;;;;;;;;;;21.20;49.16;100385.97;4468585;32;34943;-89
2022/10/27 08:32:14;;;;;;;;;;;;;;;21.45;48.66;100383.94;4468577;32;34841;-89
2022/10/27 08:34:42;;;;;;;;;;;;;;;21.35;49.28;100391.09;4468339;32;34345;-89
2022/10/27 08:37:15;;;;;;;;;;;;;;;21.20;48.82;100387.72;4468507;32;33239;-89
2022/10/27 08:39:42;;;;;;;;;;;;;;;21.12;48.98;100386.03;4468360;32;35041;-90
2022/10/27 08:42:17;;;;;;;;;;;;;;;21.44;48.42;100391.88;4454605;32;35193;-87
2022/10/27 08:44:45;;;;;;;;;;;;;;;21.18;49.41;100395.66;4451372;32;35091;-89
2022/10/27 08:47:22;;;;;;;;;;;;;;;20.94;49.76;100388.88;4454595;32;33881;-89
2022/10/27 08:49:50;;;;;;;;;;;;;;;20.99;49.73;100388.84;4466999;32;33870;-88
2022/10/27 08:52:17;;;;;;;;;;;;;;;20.84;50.35;100396.00;4453935;32;34160;-89
2022/10/27 08:54:45;;;;;;;;;;;;;;;21.34;48.98;100392.00;4466818;32;35570;-89
2022/10/27 08:57:23;;;;;;;;;;;;;;;21.44;49.24;100387.50;4454392;32;33311;-89
2022/10/27 08:59:51;;;;;;;;;;;;;;;21.59;48.32;100386.37;4454248;32;33702;-88
2022/10/27 09:02:18;;;;;;;;;;;;;;;21.14;49.39;100386.03;4454483;32;34375;-89
2022/10/27 09:05:06;;;;;;;;;;;;;;;21.35;49.11;100385.81;4468128;32;34311;-89
2022/10/27 09:07:41;;;;;;;;;;;;;;;21.27;49.43;100384.12;4460232;32;33407;-89
2022/10/27 09:10:35;;;;;;;;;;;;;;;21.68;48.19;100390.69;4453855;32;34357;-89
2022/10/27 09:13:07;;;;;;;;;;;;;;;21.95;47.48;100386.81;4466450;32;34409;-89
2022/10/27 09:15:43;;;;;;;;;;;;;;;22.04;46.71;100390.16;4439283;32;34012;-89
2022/10/27 09:18:14;;;;;;;;;;;;;;;20.62;50.71;100391.81;4438504;32;33405;-89
2022/10/27 09:20:41;;;;;;;;;;;;;;;21.43;49.34;100382.22;4452453;32;34350;-89
2022/10/27 09:23:18;;;;;;;;;;;;;;;20.52;51.29;100398.03;4453399;32;35285;-89
2022/10/27 09:25:46;;;;;;;;;;;;;;;20.64;51.46;100392.66;4438471;32;34096;-89
2022/10/27 09:28:15;;;;;;;;;;;;;;;19.94;53.21;100401.94;4438799;32;33816;-89
2022/10/27 09:30:43;;;;;;;;;;;;;;;19.77;53.69;100396.75;4438880;32;33764;-89
2022/10/27 09:33:12;;;;;;;;;;;;;;;19.78;53.58;100403.78;4453419;32;35687;-88
2022/10/27 09:35:39;;;;;;;;;;;;;;;19.06;55.43;100400.50;4454116;32;34260;-89
2022/10/27 09:38:08;;;;;;;;;;;;;;;19.42;54.88;100405.63;4453671;32;34083;-89
2022/10/27 09:40:35;;;;;;;;;;;;;;;19.93;53.30;100397.56;4453962;32;34809;-89
2022/10/27 09:43:02;;;;;;;;;;;;;;;19.28;55.09;100396.03;4454067;32;34477;-89
2022/10/27 09:45:29;;;;;;;;;;;;;;;20.45;52.36;100396.31;4454007;32;33508;-88
2022/10/27 09:47:58;;;;;;;;;;;;;;;20.82;51.42;100395.12;4467943;32;33461;-89
2022/10/27 09:50:35;;;;;;;;;;;;;;;20.55;52.00;100392.75;4468152;32;34443;-88
2022/10/27 09:53:03;;;;;;;;;;;;;;;21.20;50.16;100393.00;4454309;32;34469;-89
2022/10/27 09:55:47;;;;;;;;;;;;;;;20.85;50.25;100397.75;4453809;32;33664;-89
2022/10/27 09:58:14;;;;;;;;;;;;;;;21.18;49.43;100390.38;4467824;32;34141;-89
2022/10/27 10:00:41;;;;;;;;;;;;;;;20.60;50.89;100396.22;4453628;32;34144;-89
2022/10/27 10:03:19;;;;;;;;;;;;;;;21.01;50.35;100397.59;4452888;32;34894;-88
2022/10/27 10:05:58;;;;;;;;;;;;;;;20.93;50.40;100391.53;4446051;32;34607;-88
2022/10/27 10:08:26;;;;;;;;;;;;;;;21.31;49.08;100389.34;4438320;32;33150;-89
2022/10/27 10:10:57;;;;;;;;;;;;;;;21.33;48.80;100392.87;4452427;32;34257;-88
2022/10/27 10:13:24;;;;;;;;;;;;;;;21.36;49.19;100395.47;4452473;32;34185;-89
2022/10/27 10:16:10;;;;;;;;;;;;;;;21.79;48.24;100400.22;4452227;32;33578;-89
2022/10/27 10:18:38;;;;;;;;;;;;;;;20.93;50.24;100400.31;4452239;32;33891;-89
2022/10/27 10:21:09;;;;;;;;;;;;;;;21.34;49.21;100393.75;4438332;32;34259;-89
2022/10/27 10:23:45;;;;;;;;;;;;;;;21.52;49.05;100400.59;4438450;32;35186;-89
2022/10/27 10:26:22;;;;;;;;;;;;;;;21.46;49.32;100398.88;4452452;32;34483;-89
2022/10/27 10:28:51;;;;;;;;;;;;;;;21.66;48.90;100406.53;4438776;32;34781;-88
2022/10/27 10:31:26;;;;;;;;;;;;;;;21.98;47.57;100410.53;4452154;32;34208;-89
2022/10/27 10:34:03;;;;;;;;;;;;;;;22.37;46.45;100402.94;4438237;32;35330;-89
2022/10/27 10:36:34;;;;;;;;;;;;;;;21.62;48.46;100402.19;4452115;32;34308;-89
2022/10/27 10:39:01;;;;;;;;;;;;;;;21.17;49.04;100396.53;4452249;32;34216;-89
2022/10/27 10:41:29;;;;;;;;;;;;;;;21.25;49.47;100396.44;4452013;32;34429;-89
2022/10/27 10:44:06;;;;;;;;;;;;;;;21.63;48.69;100398.69;4438190;32;35131;-89
2022/10/27 10:46:33;;;;;;;;;;;;;;;21.78;48.16;100398.47;4451957;32;33726;-89
2022/10/27 10:49:01;;;;;;;;;;;;;;;22.04;47.59;100397.22;4437790;32;33576;-89
2022/10/27 10:51:32;;;;;;;;;;;;;;;21.12;49.62;100390.44;4451997;32;34249;-88
2022/10/27 10:54:00;;;;;;;;;;;;;;;21.94;47.84;100390.34;4438029;32;34517;-89
2022/10/27 10:56:31;;;;;;;;;;;;;;;22.10;47.32;100394.50;4437764;32;34267;-87
2022/10/27 10:58:58;;;;;;;;;;;;;;;22.52;45.99;100389.47;4455154;32;32590;-89
2022/10/27 11:01:36;;;;;;;;;;;;;;;21.99;47.63;100396.44;4467652;32;33607;-89
2022/10/27 11:04:03;;;;;;;;;;;;;;;21.80;48.12;100390.53;4467443;32;35394;-88
2022/10/27 11:06:30;;;;;;;;;;;;;;;21.83;48.35;100401.06;4453347;32;35094;-89
2022/10/27 11:09:02;;;;;;;;;;;;;;;22.01;47.85;100399.91;4453424;32;34281;-88
2022/10/27 11:11:37;;;;;;;;;;;;;;;22.21;47.25;100394.38;4467488;32;35069;-88
2022/10/27 11:14:05;;;;;;;;;;;;;;;22.76;45.67;100393.47;4453130;32;35204;-88
2022/10/27 11:16:33;;;;;;;;;;;;;;;21.83;47.93;100395.78;4450912;32;34080;-89
2022/10/27 11:19:01;;;;;;;;;;;;;;;22.19;47.20;100391.75;4438108;32;34368;-89
2022/10/27 11:21:35;;;;;;;;;;;;;;;21.80;48.10;100390.53;4437701;32;34142;-89
2022/10/27 11:24:15;;;;;;;;;;;;;;;22.40;46.39;100397.59;4451745;32;35193;-89
2022/10/27 11:27:03;;;;;;;;;;;;;;;22.65;45.97;100383.06;4437774;32;34334;-89
2022/10/27 11:29:49;;;;;;;;;;;;;;;22.74;45.69;100382.94;4451374;32;34303;-89
2022/10/27 11:32:19;;;;;;;;;;;;;;;21.24;49.29;100384.16;4451740;32;34235;-89
2022/10/27 11:34:56;;;;;;;;;;;;;;;22.33;47.72;100384.47;4437553;32;34187;-89
2022/10/27 11:37:44;;;;;;;;;;;;;;;22.46;47.44;100382.50;4445882;32;33898;-89
2022/10/27 11:40:18;;;;;;;;;;;;;;;22.70;46.25;100377.72;4452930;32;34168;-89
2022/10/27 11:42:59;;;;;;;;;;;;;;;21.44;49.01;100376.03;4466544;32;35109;-89
2022/10/27 11:45:29;;;;;;;;;;;;;;;21.75;48.51;100380.03;4467247;32;35429;-89
2022/10/27 11:47:57;;;;;;;;;;;;;;;21.20;49.82;100375.41;4467060;32;33842;-90
2022/10/27 11:50:38;;;;;;;;;;;;;;;21.96;48.67;100364.78;4452821;32;33615;-89
2022/10/27 11:53:06;;;;;;;;;;;;;;;21.60;49.42;100373.19;4452686;32;34524;-89
2022/10/27 11:55:58;;;;;;;;;;;;;;;21.55;49.18;100366.22;4467068;32;34801;-89
2022/10/27 11:58:25;;;;;;;;;;;;;;;21.96;48.04;100359.50;4466426;32;33958;-89
2022/10/27 12:00:54;;;;;;;;;;;;;;;21.51;49.64;100370.66;4466747;32;34186;-89
2022/10/27 12:03:21;;;;;;;;;;;;;;;21.49;49.19;100361.91;4452957;32;34365;-89
2022/10/27 12:05:55;;;;;;;;;;;;;;;22.04;48.23;100362.87;4466684;32;34374;-89
2022/10/27 12:08:25;;;;;;;;;;;;;;;22.35;48.00;100365.97;4437154;32;34406;-89
2022/10/27 12:11:02;;;;;;;;;;;;;;;22.08;48.15;100364.59;4457909;32;33335;-89
2022/10/27 12:13:29;;;;;;;;;;;;;;;22.24;47.57;100360.00;4466560;32;33961;-89
2022/10/27 12:16:01;;;;;;;;;;;;;;;22.81;46.41;100352.84;4467017;32;33742;-89
2022/10/27 12:18:28;;;;;;;;;;;;;;;;;;4452296;32;34130;-89
2022/10/27 12:21:00;;;;;;;;;;;;;;;22.75;46.53;100346.78;4466624;32;33533;-89
2022/10/27 12:23:54;;;;;;;;;;;;;;;23.23;45.42;100346.78;4452403;32;34345;-89
2022/10/27 12:26:24;;;;;;;;;;;;;;;23.36;44.66;100344.75;4448006;32;34398;-89
2022/10/27 12:28:52;;;;;;;;;;;;;;;23.12;45.33;100339.06;4468545;32;34330;-89
2022/10/27 12:31:20;;;;;;;;;;;;;;;23.56;44.77;100337.22;4468599;32;33343;-89
2022/10/27 12:34:01;;;;;;;;;;;;;;;23.40;44.87;100336.69;4454699;32;34785;-89
2022/10/27 12:36:30;;;;;;;;;;;;;;;23.05;45.77;100335.66;4454385;32;35312;-89
2022/10/27 12:39:05;;;;;;;;;;;;;;;23.49;44.82;100335.66;4454651;32;34146;-90
2022/10/27 12:41:53;;;;;;;;;;;;;;;23.81;44.13;100326.16;4441927;32;33402;-90
2022/10/27 12:44:23;;;;;;;;;;;;;;;22.93;46.01;100330.59;4452941;32;34245;-89
2022/10/27 12:47:06;;;;;;;;;;;;;;;22.72;46.61;100338.91;4439112;32;35194;-88
2022/10/27 12:49:45;;;;;;;;;;;;;;;23.30;45.08;100335.16;4454539;32;33999;-90
2022/10/27 12:52:24;;;;;;;;;;;;;;;22.85;46.49;100336.91;4442817;32;34077;-89